sensor_id;sensor_type;location;lat;lon;timestamp;temperature;humidity
30174;DHT22;16985;50.814;8.530;2022-07-04T00:00:57;18.50;78.10
30174;DHT22;16985;50.814;8.530;2022-07-04T00:03:23;18.40;78.00
30174;DHT22;16985;50.814;8.530;2022-07-04T00:05:49;18.40;78.20
30174;DHT22;16985;50.814;8.530;2022-07-04T00:08:15;18.40;78.20
30174;DHT22;16985;50.814;8.530;2022-07-04T00:10:41;18.30;78.30
30174;DHT22;16985;50.814;8.530;2022-07-04T00:13:06;18.30;78.40
30174;DHT22;16985;50.814;8.530;2022-07-04T00:15:32;18.30;78.70
30174;DHT22;16985;50.814;8.530;2022-07-04T00:17:58;18.30;78.70
30174;DHT22;16985;50.814;8.530;2022-07-04T00:20:24;18.20;78.90
30174;DHT22;16985;50.814;8.530;2022-07-04T00:22:50;18.20;79.30
30174;DHT22;16985;50.814;8.530;2022-07-04T00:25:15;18.10;79.50
30174;DHT22;16985;50.814;8.530;2022-07-04T00:27:41;18.10;79.60
30174;DHT22;16985;50.814;8.530;2022-07-04T00:30:07;18.00;79.70
30174;DHT22;16985;50.814;8.530;2022-07-04T00:32:33;18.00;80.00
30174;DHT22;16985;50.814;8.530;2022-07-04T00:34:59;17.90;80.10
30174;DHT22;16985;50.814;8.530;2022-07-04T00:37:25;17.90;80.20
30174;DHT22;16985;50.814;8.530;2022-07-04T00:39:51;17.80;80.30
30174;DHT22;16985;50.814;8.530;2022-07-04T00:42:17;17.70;80.50
30174;DHT22;16985;50.814;8.530;2022-07-04T00:44:42;17.80;80.80
30174;DHT22;16985;50.814;8.530;2022-07-04T00:47:08;17.80;80.80
30174;DHT22;16985;50.814;8.530;2022-07-04T00:49:35;17.70;81.00
30174;DHT22;16985;50.814;8.530;2022-07-04T00:52:01;17.60;81.10
30174;DHT22;16985;50.814;8.530;2022-07-04T00:54:29;17.60;81.30
30174;DHT22;16985;50.814;8.530;2022-07-04T00:56:56;17.50;81.30
30174;DHT22;16985;50.814;8.530;2022-07-04T00:59:23;17.50;81.50
30174;DHT22;16985;50.814;8.530;2022-07-04T01:01:50;17.50;81.80
30174;DHT22;16985;50.814;8.530;2022-07-04T01:04:16;17.40;82.00
30174;DHT22;16985;50.814;8.530;2022-07-04T01:06:43;17.40;82.40
30174;DHT22;16985;50.814;8.530;2022-07-04T01:09:10;17.40;82.30
30174;DHT22;16985;50.814;8.530;2022-07-04T01:11:36;17.40;82.60
30174;DHT22;16985;50.814;8.530;2022-07-04T01:14:02;17.30;82.40
30174;DHT22;16985;50.814;8.530;2022-07-04T01:16:28;17.30;82.60
30174;DHT22;16985;50.814;8.530;2022-07-04T01:18:54;17.30;82.80
30174;DHT22;16985;50.814;8.530;2022-07-04T01:21:20;17.20;82.90
30174;DHT22;16985;50.814;8.530;2022-07-04T01:23:46;17.10;83.00
30174;DHT22;16985;50.814;8.530;2022-07-04T01:26:12;17.10;83.00
30174;DHT22;16985;50.814;8.530;2022-07-04T01:28:38;17.00;83.10
30174;DHT22;16985;50.814;8.530;2022-07-04T01:31:05;17.00;84.00
30174;DHT22;16985;50.814;8.530;2022-07-04T01:33:31;16.90;83.30
30174;DHT22;16985;50.814;8.530;2022-07-04T01:35:58;16.80;83.60
30174;DHT22;16985;50.814;8.530;2022-07-04T01:38:24;16.80;83.80
30174;DHT22;16985;50.814;8.530;2022-07-04T01:40:50;16.70;84.00
30174;DHT22;16985;50.814;8.530;2022-07-04T01:43:16;16.60;84.10
30174;DHT22;16985;50.814;8.530;2022-07-04T01:45:41;16.60;84.30
30174;DHT22;16985;50.814;8.530;2022-07-04T01:48:10;16.50;84.60
30174;DHT22;16985;50.814;8.530;2022-07-04T01:50:37;16.50;84.80
30174;DHT22;16985;50.814;8.530;2022-07-04T01:53:03;16.40;85.00
30174;DHT22;16985;50.814;8.530;2022-07-04T01:55:29;16.40;85.10
30174;DHT22;16985;50.814;8.530;2022-07-04T01:57:55;16.30;85.40
30174;DHT22;16985;50.814;8.530;2022-07-04T02:00:22;16.20;85.60
30174;DHT22;16985;50.814;8.530;2022-07-04T02:03:06;16.20;85.90
30174;DHT22;16985;50.814;8.530;2022-07-04T02:05:32;16.10;86.90
30174;DHT22;16985;50.814;8.530;2022-07-04T02:07:59;16.00;86.30
30174;DHT22;16985;50.814;8.530;2022-07-04T02:10:25;16.00;86.30
30174;DHT22;16985;50.814;8.530;2022-07-04T02:12:50;15.90;86.80
30174;DHT22;16985;50.814;8.530;2022-07-04T02:15:34;15.90;86.80
30174;DHT22;16985;50.814;8.530;2022-07-04T02:18:02;15.80;87.10
30174;DHT22;16985;50.814;8.530;2022-07-04T02:20:29;15.80;87.30
30174;DHT22;16985;50.814;8.530;2022-07-04T02:22:55;15.80;87.70
30174;DHT22;16985;50.814;8.530;2022-07-04T02:25:21;15.70;87.80
30174;DHT22;16985;50.814;8.530;2022-07-04T02:27:50;15.70;88.00
30174;DHT22;16985;50.814;8.530;2022-07-04T02:30:17;15.60;88.10
30174;DHT22;16985;50.814;8.530;2022-07-04T02:32:44;15.60;88.30
30174;DHT22;16985;50.814;8.530;2022-07-04T02:35:10;15.50;88.30
30174;DHT22;16985;50.814;8.530;2022-07-04T02:37:37;15.50;88.60
30174;DHT22;16985;50.814;8.530;2022-07-04T02:40:05;15.50;88.50
30174;DHT22;16985;50.814;8.530;2022-07-04T02:42:33;15.40;88.50
30174;DHT22;16985;50.814;8.530;2022-07-04T02:44:59;15.40;88.80
30174;DHT22;16985;50.814;8.530;2022-07-04T02:47:25;15.30;89.20
30174;DHT22;16985;50.814;8.530;2022-07-04T02:49:51;15.30;89.30
30174;DHT22;16985;50.814;8.530;2022-07-04T02:52:17;15.20;89.70
30174;DHT22;16985;50.814;8.530;2022-07-04T02:54:43;15.20;89.70
30174;DHT22;16985;50.814;8.530;2022-07-04T02:57:10;15.10;89.60
30174;DHT22;16985;50.814;8.530;2022-07-04T02:59:36;15.10;89.70
30174;DHT22;16985;50.814;8.530;2022-07-04T03:02:02;15.00;89.80
30174;DHT22;16985;50.814;8.530;2022-07-04T03:04:28;15.00;90.00
30174;DHT22;16985;50.814;8.530;2022-07-04T03:06:53;15.00;90.00
30174;DHT22;16985;50.814;8.530;2022-07-04T03:09:19;14.90;90.10
30174;DHT22;16985;50.814;8.530;2022-07-04T03:11:45;14.80;90.00
30174;DHT22;16985;50.814;8.530;2022-07-04T03:14:11;14.90;90.20
30174;DHT22;16985;50.814;8.530;2022-07-04T03:16:37;14.80;90.20
30174;DHT22;16985;50.814;8.530;2022-07-04T03:19:03;14.80;90.30
30174;DHT22;16985;50.814;8.530;2022-07-04T03:21:29;14.70;90.20
30174;DHT22;16985;50.814;8.530;2022-07-04T03:23:55;14.70;90.30
30174;DHT22;16985;50.814;8.530;2022-07-04T03:26:27;14.60;90.20
30174;DHT22;16985;50.814;8.530;2022-07-04T03:28:57;14.60;90.30
30174;DHT22;16985;50.814;8.530;2022-07-04T03:31:24;14.50;90.40
30174;DHT22;16985;50.814;8.530;2022-07-04T03:33:51;14.50;90.60
30174;DHT22;16985;50.814;8.530;2022-07-04T03:36:18;14.50;90.80
30174;DHT22;16985;50.814;8.530;2022-07-04T03:38:44;14.40;90.90
30174;DHT22;16985;50.814;8.530;2022-07-04T03:41:10;14.40;91.00
30174;DHT22;16985;50.814;8.530;2022-07-04T03:43:36;14.30;91.00
30174;DHT22;16985;50.814;8.530;2022-07-04T03:46:02;14.30;90.80
30174;DHT22;16985;50.814;8.530;2022-07-04T03:48:28;14.40;91.10
30174;DHT22;16985;50.814;8.530;2022-07-04T03:50:54;14.30;91.00
30174;DHT22;16985;50.814;8.530;2022-07-04T03:53:20;14.40;91.20
30174;DHT22;16985;50.814;8.530;2022-07-04T03:55:46;14.20;91.00
30174;DHT22;16985;50.814;8.530;2022-07-04T03:58:12;14.20;91.30
30174;DHT22;16985;50.814;8.530;2022-07-04T04:00:38;14.20;91.40
30174;DHT22;16985;50.814;8.530;2022-07-04T04:03:04;14.10;91.30
30174;DHT22;16985;50.814;8.530;2022-07-04T04:05:49;14.10;91.40
30174;DHT22;16985;50.814;8.530;2022-07-04T04:08:15;14.10;91.50
30174;DHT22;16985;50.814;8.530;2022-07-04T04:10:41;14.10;91.40
30174;DHT22;16985;50.814;8.530;2022-07-04T04:13:08;14.10;91.50
30174;DHT22;16985;50.814;8.530;2022-07-04T04:15:34;14.10;91.80
30174;DHT22;16985;50.814;8.530;2022-07-04T04:18:00;14.10;91.90
30174;DHT22;16985;50.814;8.530;2022-07-04T04:20:26;14.00;92.30
30174;DHT22;16985;50.814;8.530;2022-07-04T04:22:52;14.00;92.40
30174;DHT22;16985;50.814;8.530;2022-07-04T04:25:18;14.00;92.70
30174;DHT22;16985;50.814;8.530;2022-07-04T04:27:44;14.00;93.00
30174;DHT22;16985;50.814;8.530;2022-07-04T04:30:10;14.00;93.20
30174;DHT22;16985;50.814;8.530;2022-07-04T04:32:36;14.10;93.50
30174;DHT22;16985;50.814;8.530;2022-07-04T04:35:02;14.00;93.40
30174;DHT22;16985;50.814;8.530;2022-07-04T04:37:28;14.10;93.70
30174;DHT22;16985;50.814;8.530;2022-07-04T04:39:54;14.10;94.00
30174;DHT22;16985;50.814;8.530;2022-07-04T04:42:19;14.10;94.20
30174;DHT22;16985;50.814;8.530;2022-07-04T04:44:45;14.10;94.20
30174;DHT22;16985;50.814;8.530;2022-07-04T04:47:11;14.10;94.40
30174;DHT22;16985;50.814;8.530;2022-07-04T04:49:37;14.10;94.30
30174;DHT22;16985;50.814;8.530;2022-07-04T04:52:03;14.10;94.50
30174;DHT22;16985;50.814;8.530;2022-07-04T04:54:29;14.20;94.40
30174;DHT22;16985;50.814;8.530;2022-07-04T04:56:55;14.20;94.70
30174;DHT22;16985;50.814;8.530;2022-07-04T04:59:21;14.20;94.90
30174;DHT22;16985;50.814;8.530;2022-07-04T05:01:46;14.20;94.00
30174;DHT22;16985;50.814;8.530;2022-07-04T05:04:12;14.30;94.20
30174;DHT22;16985;50.814;8.530;2022-07-04T05:06:40;14.30;94.70
30174;DHT22;16985;50.814;8.530;2022-07-04T05:09:06;14.30;94.40
30174;DHT22;16985;50.814;8.530;2022-07-04T05:11:32;14.30;94.40
30174;DHT22;16985;50.814;8.530;2022-07-04T05:13:58;14.30;94.80
30174;DHT22;16985;50.814;8.530;2022-07-04T05:16:24;14.30;94.50
30174;DHT22;16985;50.814;8.530;2022-07-04T05:18:50;14.30;95.00
30174;DHT22;16985;50.814;8.530;2022-07-04T05:21:16;14.40;95.10
30174;DHT22;16985;50.814;8.530;2022-07-04T05:23:42;14.40;95.10
30174;DHT22;16985;50.814;8.530;2022-07-04T05:26:08;14.50;94.90
30174;DHT22;16985;50.814;8.530;2022-07-04T05:28:33;14.50;95.20
30174;DHT22;16985;50.814;8.530;2022-07-04T05:30:59;14.50;95.50
30174;DHT22;16985;50.814;8.530;2022-07-04T05:33:25;14.50;95.30
30174;DHT22;16985;50.814;8.530;2022-07-04T05:35:51;14.60;95.60
30174;DHT22;16985;50.814;8.530;2022-07-04T05:38:16;14.60;95.40
30174;DHT22;16985;50.814;8.530;2022-07-04T05:40:43;14.60;95.10
30174;DHT22;16985;50.814;8.530;2022-07-04T05:43:09;14.70;95.80
30174;DHT22;16985;50.814;8.530;2022-07-04T05:45:37;14.70;95.70
30174;DHT22;16985;50.814;8.530;2022-07-04T05:48:03;14.80;95.50
30174;DHT22;16985;50.814;8.530;2022-07-04T05:50:29;14.80;96.00
30174;DHT22;16985;50.814;8.530;2022-07-04T05:52:54;14.90;96.20
30174;DHT22;16985;50.814;8.530;2022-07-04T05:55:20;14.90;96.30
30174;DHT22;16985;50.814;8.530;2022-07-04T05:57:46;14.90;96.20
30174;DHT22;16985;50.814;8.530;2022-07-04T06:00:12;15.00;96.50
30174;DHT22;16985;50.814;8.530;2022-07-04T06:02:38;15.00;97.30
30174;DHT22;16985;50.814;8.530;2022-07-04T06:05:05;15.00;97.70
30174;DHT22;16985;50.814;8.530;2022-07-04T06:07:31;15.10;97.40
30174;DHT22;16985;50.814;8.530;2022-07-04T06:09:56;15.10;97.50
30174;DHT22;16985;50.814;8.530;2022-07-04T06:12:22;15.20;96.60
30174;DHT22;16985;50.814;8.530;2022-07-04T06:14:48;15.40;95.50
30174;DHT22;16985;50.814;8.530;2022-07-04T06:17:14;15.40;94.40
30174;DHT22;16985;50.814;8.530;2022-07-04T06:19:40;15.50;94.40
30174;DHT22;16985;50.814;8.530;2022-07-04T06:22:06;15.50;94.10
30174;DHT22;16985;50.814;8.530;2022-07-04T06:24:31;15.50;93.90
30174;DHT22;16985;50.814;8.530;2022-07-04T06:26:59;15.60;93.80
30174;DHT22;16985;50.814;8.530;2022-07-04T06:29:24;15.60;93.70
30174;DHT22;16985;50.814;8.530;2022-07-04T06:31:50;15.70;93.50
30174;DHT22;16985;50.814;8.530;2022-07-04T06:34:16;15.70;93.20
30174;DHT22;16985;50.814;8.530;2022-07-04T06:37:00;15.80;92.90
30174;DHT22;16985;50.814;8.530;2022-07-04T06:39:26;15.90;92.40
30174;DHT22;16985;50.814;8.530;2022-07-04T06:41:52;15.90;92.30
30174;DHT22;16985;50.814;8.530;2022-07-04T06:44:18;16.00;92.10
30174;DHT22;16985;50.814;8.530;2022-07-04T06:46:44;16.10;91.40
30174;DHT22;16985;50.814;8.530;2022-07-04T06:49:11;16.20;91.10
30174;DHT22;16985;50.814;8.530;2022-07-04T06:51:37;16.20;90.50
30174;DHT22;16985;50.814;8.530;2022-07-04T06:54:03;16.30;90.00
30174;DHT22;16985;50.814;8.530;2022-07-04T06:56:29;16.40;88.50
30174;DHT22;16985;50.814;8.530;2022-07-04T06:58:54;16.50;87.70
30174;DHT22;16985;50.814;8.530;2022-07-04T07:01:20;16.50;86.50
30174;DHT22;16985;50.814;8.530;2022-07-04T07:03:46;16.60;85.40
30174;DHT22;16985;50.814;8.530;2022-07-04T07:06:12;16.60;84.60
30174;DHT22;16985;50.814;8.530;2022-07-04T07:08:37;16.70;84.60
30174;DHT22;16985;50.814;8.530;2022-07-04T07:11:04;16.80;82.80
30174;DHT22;16985;50.814;8.530;2022-07-04T07:13:44;16.80;82.10
30174;DHT22;16985;50.814;8.530;2022-07-04T07:16:11;16.90;80.10
30174;DHT22;16985;50.814;8.530;2022-07-04T07:18:37;17.00;79.80
30174;DHT22;16985;50.814;8.530;2022-07-04T07:21:03;17.10;78.80
30174;DHT22;16985;50.814;8.530;2022-07-04T07:23:29;17.20;78.90
30174;DHT22;16985;50.814;8.530;2022-07-04T07:25:55;17.20;78.40
30174;DHT22;16985;50.814;8.530;2022-07-04T07:28:21;17.30;77.60
30174;DHT22;16985;50.814;8.530;2022-07-04T07:30:47;17.40;77.20
30174;DHT22;16985;50.814;8.530;2022-07-04T07:33:13;17.40;77.20
30174;DHT22;16985;50.814;8.530;2022-07-04T07:35:38;17.50;77.00
30174;DHT22;16985;50.814;8.530;2022-07-04T07:38:04;17.60;77.10
30174;DHT22;16985;50.814;8.530;2022-07-04T07:40:31;17.70;77.50
30174;DHT22;16985;50.814;8.530;2022-07-04T07:42:57;17.80;77.50
30174;DHT22;16985;50.814;8.530;2022-07-04T07:45:23;17.90;77.20
30174;DHT22;16985;50.814;8.530;2022-07-04T07:47:49;17.90;76.50
30174;DHT22;16985;50.814;8.530;2022-07-04T07:50:15;18.10;74.80
30174;DHT22;16985;50.814;8.530;2022-07-04T07:52:41;18.10;74.60
30174;DHT22;16985;50.814;8.530;2022-07-04T07:55:07;18.20;74.10
30174;DHT22;16985;50.814;8.530;2022-07-04T07:57:33;18.30;74.00
30174;DHT22;16985;50.814;8.530;2022-07-04T07:59:59;18.30;74.10
30174;DHT22;16985;50.814;8.530;2022-07-04T08:02:25;18.40;73.80
30174;DHT22;16985;50.814;8.530;2022-07-04T08:05:10;18.50;73.40
30174;DHT22;16985;50.814;8.530;2022-07-04T08:07:37;18.60;73.60
30174;DHT22;16985;50.814;8.530;2022-07-04T08:10:03;18.70;74.00
30174;DHT22;16985;50.814;8.530;2022-07-04T08:12:30;18.80;73.20
30174;DHT22;16985;50.814;8.530;2022-07-04T08:14:56;18.90;72.90
30174;DHT22;16985;50.814;8.530;2022-07-04T08:17:21;19.00;72.50
30174;DHT22;16985;50.814;8.530;2022-07-04T08:19:47;19.00;72.30
30174;DHT22;16985;50.814;8.530;2022-07-04T08:22:13;19.10;72.20
30174;DHT22;16985;50.814;8.530;2022-07-04T08:24:39;19.20;71.60
30174;DHT22;16985;50.814;8.530;2022-07-04T08:27:05;19.40;71.00
30174;DHT22;16985;50.814;8.530;2022-07-04T08:29:31;19.40;70.70
30174;DHT22;16985;50.814;8.530;2022-07-04T08:31:57;19.60;71.00
30174;DHT22;16985;50.814;8.530;2022-07-04T08:34:23;19.70;71.20
30174;DHT22;16985;50.814;8.530;2022-07-04T08:36:49;19.80;70.30
30174;DHT22;16985;50.814;8.530;2022-07-04T08:39:15;19.80;69.90
30174;DHT22;16985;50.814;8.530;2022-07-04T08:41:42;20.00;70.10
30174;DHT22;16985;50.814;8.530;2022-07-04T08:44:09;20.10;69.80
30174;DHT22;16985;50.814;8.530;2022-07-04T08:46:39;20.10;69.40
30174;DHT22;16985;50.814;8.530;2022-07-04T08:49:21;20.30;69.10
30174;DHT22;16985;50.814;8.530;2022-07-04T08:54:31;20.50;68.10
30174;DHT22;16985;50.814;8.530;2022-07-04T08:57:16;20.70;68.00
30174;DHT22;16985;50.814;8.530;2022-07-04T09:00:03;20.80;67.40
30174;DHT22;16985;50.814;8.530;2022-07-04T09:02:30;20.80;66.00
30174;DHT22;16985;50.814;8.530;2022-07-04T09:04:56;20.90;65.30
30174;DHT22;16985;50.814;8.530;2022-07-04T09:07:22;21.10;64.60
30174;DHT22;16985;50.814;8.530;2022-07-04T09:09:48;21.10;63.90
30174;DHT22;16985;50.814;8.530;2022-07-04T09:12:15;21.20;64.30
30174;DHT22;16985;50.814;8.530;2022-07-04T09:14:40;21.30;63.90
30174;DHT22;16985;50.814;8.530;2022-07-04T09:17:06;21.40;63.20
30174;DHT22;16985;50.814;8.530;2022-07-04T09:19:33;21.50;63.30
30174;DHT22;16985;50.814;8.530;2022-07-04T09:22:08;21.60;63.30
30174;DHT22;16985;50.814;8.530;2022-07-04T09:24:50;21.70;63.50
30174;DHT22;16985;50.814;8.530;2022-07-04T09:29:59;21.90;61.60
30174;DHT22;16985;50.814;8.530;2022-07-04T09:32:39;21.90;61.10
30174;DHT22;16985;50.814;8.530;2022-07-04T09:35:22;22.10;61.10
30174;DHT22;16985;50.814;8.530;2022-07-04T09:37:50;22.20;60.90
30174;DHT22;16985;50.814;8.530;2022-07-04T09:43:01;22.40;60.20
30174;DHT22;16985;50.814;8.530;2022-07-04T09:45:29;22.50;59.80
30174;DHT22;16985;50.814;8.530;2022-07-04T09:47:58;22.60;60.20
30174;DHT22;16985;50.814;8.530;2022-07-04T09:50:26;22.70;59.90
30174;DHT22;16985;50.814;8.530;2022-07-04T09:53:01;22.80;59.70
30174;DHT22;16985;50.814;8.530;2022-07-04T09:55:36;22.80;59.30
30174;DHT22;16985;50.814;8.530;2022-07-04T09:58:09;22.80;59.30
30174;DHT22;16985;50.814;8.530;2022-07-04T10:00:43;22.90;59.50
30174;DHT22;16985;50.814;8.530;2022-07-04T10:03:23;22.90;58.80
30174;DHT22;16985;50.814;8.530;2022-07-04T10:06:10;23.00;58.80
30174;DHT22;16985;50.814;8.530;2022-07-04T10:08:41;23.10;58.30
30174;DHT22;16985;50.814;8.530;2022-07-04T10:11:08;23.20;57.60
30174;DHT22;16985;50.814;8.530;2022-07-04T10:13:34;23.30;57.10
30174;DHT22;16985;50.814;8.530;2022-07-04T10:16:01;23.50;57.00
30174;DHT22;16985;50.814;8.530;2022-07-04T10:18:27;23.60;56.60
30174;DHT22;16985;50.814;8.530;2022-07-04T10:20:55;23.70;56.30
30174;DHT22;16985;50.814;8.530;2022-07-04T10:23:22;23.80;56.10
30174;DHT22;16985;50.814;8.530;2022-07-04T10:25:52;23.90;55.80
30174;DHT22;16985;50.814;8.530;2022-07-04T10:28:19;24.00;55.90
30174;DHT22;16985;50.814;8.530;2022-07-04T10:30:57;24.20;55.90
30174;DHT22;16985;50.814;8.530;2022-07-04T10:33:26;24.20;55.50
30174;DHT22;16985;50.814;8.530;2022-07-04T10:36:01;24.30;55.30
30174;DHT22;16985;50.814;8.530;2022-07-04T10:38:34;24.40;54.50
30174;DHT22;16985;50.814;8.530;2022-07-04T10:41:03;24.40;53.70
30174;DHT22;16985;50.814;8.530;2022-07-04T10:54:28;25.00;52.70
30174;DHT22;16985;50.814;8.530;2022-07-04T10:56:57;25.10;51.90
30174;DHT22;16985;50.814;8.530;2022-07-04T10:59:34;25.00;51.90
30174;DHT22;16985;50.814;8.530;2022-07-04T11:05:01;25.10;51.30
30174;DHT22;16985;50.814;8.530;2022-07-04T11:17:50;25.70;51.30
30174;DHT22;16985;50.814;8.530;2022-07-04T11:20:20;25.80;50.60
30174;DHT22;16985;50.814;8.530;2022-07-04T11:22:47;25.90;50.00
30174;DHT22;16985;50.814;8.530;2022-07-04T11:25:13;26.10;48.80
30174;DHT22;16985;50.814;8.530;2022-07-04T11:27:41;26.30;48.60
30174;DHT22;16985;50.814;8.530;2022-07-04T11:30:08;26.40;48.70
30174;DHT22;16985;50.814;8.530;2022-07-04T11:32:36;26.50;48.40
30174;DHT22;16985;50.814;8.530;2022-07-04T11:35:05;26.60;48.50
30174;DHT22;16985;50.814;8.530;2022-07-04T11:37:32;26.80;48.50
30174;DHT22;16985;50.814;8.530;2022-07-04T11:39:59;27.00;48.80
30174;DHT22;16985;50.814;8.530;2022-07-04T11:43:06;27.10;48.40
30174;DHT22;16985;50.814;8.530;2022-07-04T11:45:51;27.20;48.10
30174;DHT22;16985;50.814;8.530;2022-07-04T11:48:24;27.40;48.40
30174;DHT22;16985;50.814;8.530;2022-07-04T11:50:51;27.50;48.00
30174;DHT22;16985;50.814;8.530;2022-07-04T11:53:18;27.60;47.40
30174;DHT22;16985;50.814;8.530;2022-07-04T11:55:57;27.80;46.20
30174;DHT22;16985;50.814;8.530;2022-07-04T11:58:24;27.90;45.90
30174;DHT22;16985;50.814;8.530;2022-07-04T12:00:50;28.00;45.90
30174;DHT22;16985;50.814;8.530;2022-07-04T12:03:16;28.10;46.20
30174;DHT22;16985;50.814;8.530;2022-07-04T12:05:41;28.20;45.80
30174;DHT22;16985;50.814;8.530;2022-07-04T12:08:09;28.30;45.00
30174;DHT22;16985;50.814;8.530;2022-07-04T12:10:36;28.40;44.80
30174;DHT22;16985;50.814;8.530;2022-07-04T12:13:04;28.50;44.80
30174;DHT22;16985;50.814;8.530;2022-07-04T12:15:43;28.60;44.60
30174;DHT22;16985;50.814;8.530;2022-07-04T12:20:48;28.70;44.50
30174;DHT22;16985;50.814;8.530;2022-07-04T12:23:15;28.70;44.70
30174;DHT22;16985;50.814;8.530;2022-07-04T12:25:44;28.60;45.40
30174;DHT22;16985;50.814;8.530;2022-07-04T12:28:13;28.40;45.30
30174;DHT22;16985;50.814;8.530;2022-07-04T12:30:54;28.20;46.20
30174;DHT22;16985;50.814;8.530;2022-07-04T12:33:23;28.20;45.90
30174;DHT22;16985;50.814;8.530;2022-07-04T12:35:58;28.20;45.90
30174;DHT22;16985;50.814;8.530;2022-07-04T12:41:00;28.40;45.40
30174;DHT22;16985;50.814;8.530;2022-07-04T12:46:11;28.70;44.90
30174;DHT22;16985;50.814;8.530;2022-07-04T12:48:40;28.90;44.90
30174;DHT22;16985;50.814;8.530;2022-07-04T12:53:42;29.20;43.40
30174;DHT22;16985;50.814;8.530;2022-07-04T12:56:10;29.30;43.50
30174;DHT22;16985;50.814;8.530;2022-07-04T12:59:17;29.50;44.20
30174;DHT22;16985;50.814;8.530;2022-07-04T13:01:44;29.70;43.60
30174;DHT22;16985;50.814;8.530;2022-07-04T13:04:12;29.70;43.00
30174;DHT22;16985;50.814;8.530;2022-07-04T13:06:39;29.70;42.00
30174;DHT22;16985;50.814;8.530;2022-07-04T13:09:05;29.60;42.40
30174;DHT22;16985;50.814;8.530;2022-07-04T13:11:33;29.50;42.60
30174;DHT22;16985;50.814;8.530;2022-07-04T13:14:18;29.50;42.60
30174;DHT22;16985;50.814;8.530;2022-07-04T13:16:44;29.60;42.90
30174;DHT22;16985;50.814;8.530;2022-07-04T13:19:10;29.60;42.70
30174;DHT22;16985;50.814;8.530;2022-07-04T13:21:36;29.70;42.50
30174;DHT22;16985;50.814;8.530;2022-07-04T13:24:02;29.60;42.50
30174;DHT22;16985;50.814;8.530;2022-07-04T13:26:28;29.70;42.50
30174;DHT22;16985;50.814;8.530;2022-07-04T13:28:56;29.70;42.80
30174;DHT22;16985;50.814;8.530;2022-07-04T13:31:22;29.60;42.20
30174;DHT22;16985;50.814;8.530;2022-07-04T13:33:48;29.40;42.00
30174;DHT22;16985;50.814;8.530;2022-07-04T13:36:14;29.40;42.40
30174;DHT22;16985;50.814;8.530;2022-07-04T13:38:41;29.50;42.50
30174;DHT22;16985;50.814;8.530;2022-07-04T13:41:07;29.60;42.90
30174;DHT22;16985;50.814;8.530;2022-07-04T13:43:33;29.50;42.50
30174;DHT22;16985;50.814;8.530;2022-07-04T13:45:58;29.40;43.20
30174;DHT22;16985;50.814;8.530;2022-07-04T13:48:24;29.40;43.40
30174;DHT22;16985;50.814;8.530;2022-07-04T13:53:17;29.20;44.00
30174;DHT22;16985;50.814;8.530;2022-07-04T13:55:43;29.10;44.30
30174;DHT22;16985;50.814;8.530;2022-07-04T13:58:10;29.00;44.80
30174;DHT22;16985;50.814;8.530;2022-07-04T14:03:04;28.60;44.80
30174;DHT22;16985;50.814;8.530;2022-07-04T14:05:31;28.40;45.30
30174;DHT22;16985;50.814;8.530;2022-07-04T14:08:00;28.40;45.50
30174;DHT22;16985;50.814;8.530;2022-07-04T14:10:50;28.50;45.90
30174;DHT22;16985;50.814;8.530;2022-07-04T14:13:58;28.50;46.30
30174;DHT22;16985;50.814;8.530;2022-07-04T14:16:30;28.70;45.70
30174;DHT22;16985;50.814;8.530;2022-07-04T14:18:57;28.80;45.00
30174;DHT22;16985;50.814;8.530;2022-07-04T14:21:30;29.00;44.70
30174;DHT22;16985;50.814;8.530;2022-07-04T14:23:56;29.00;43.80
30174;DHT22;16985;50.814;8.530;2022-07-04T14:26:23;28.90;44.10
30174;DHT22;16985;50.814;8.530;2022-07-04T14:28:50;28.90;44.50
30174;DHT22;16985;50.814;8.530;2022-07-04T14:31:16;29.00;44.60
30174;DHT22;16985;50.814;8.530;2022-07-04T14:33:42;29.00;44.70
30174;DHT22;16985;50.814;8.530;2022-07-04T14:36:09;29.00;44.40
30174;DHT22;16985;50.814;8.530;2022-07-04T14:38:40;29.20;44.80
30174;DHT22;16985;50.814;8.530;2022-07-04T14:41:11;29.20;44.70
30174;DHT22;16985;50.814;8.530;2022-07-04T14:43:42;29.30;44.30
30174;DHT22;16985;50.814;8.530;2022-07-04T14:46:12;29.30;43.60
30174;DHT22;16985;50.814;8.530;2022-07-04T14:48:38;29.30;42.50
30174;DHT22;16985;50.814;8.530;2022-07-04T14:51:06;29.30;41.90
30174;DHT22;16985;50.814;8.530;2022-07-04T14:53:34;29.30;42.40
30174;DHT22;16985;50.814;8.530;2022-07-04T14:56:01;29.30;42.60
30174;DHT22;16985;50.814;8.530;2022-07-04T14:58:37;29.30;41.60
30174;DHT22;16985;50.814;8.530;2022-07-04T15:01:07;29.40;42.00
30174;DHT22;16985;50.814;8.530;2022-07-04T15:03:39;29.40;41.90
30174;DHT22;16985;50.814;8.530;2022-07-04T15:06:05;29.50;42.30
30174;DHT22;16985;50.814;8.530;2022-07-04T15:08:31;29.50;42.20
30174;DHT22;16985;50.814;8.530;2022-07-04T15:10:57;29.50;42.10
30174;DHT22;16985;50.814;8.530;2022-07-04T15:13:23;29.50;42.90
30174;DHT22;16985;50.814;8.530;2022-07-04T15:15:48;29.50;42.10
30174;DHT22;16985;50.814;8.530;2022-07-04T15:18:22;29.50;41.90
30174;DHT22;16985;50.814;8.530;2022-07-04T15:20:48;29.50;42.10
30174;DHT22;16985;50.814;8.530;2022-07-04T15:26:20;29.40;42.90
30174;DHT22;16985;50.814;8.530;2022-07-04T15:28:46;29.40;43.30
30174;DHT22;16985;50.814;8.530;2022-07-04T15:31:11;29.40;43.60
30174;DHT22;16985;50.814;8.530;2022-07-04T15:33:38;29.40;43.60
30174;DHT22;16985;50.814;8.530;2022-07-04T15:36:04;29.30;43.50
30174;DHT22;16985;50.814;8.530;2022-07-04T15:38:30;29.40;43.70
30174;DHT22;16985;50.814;8.530;2022-07-04T15:40:56;29.30;43.60
30174;DHT22;16985;50.814;8.530;2022-07-04T15:43:24;29.40;43.30
30174;DHT22;16985;50.814;8.530;2022-07-04T15:45:50;29.20;43.50
30174;DHT22;16985;50.814;8.530;2022-07-04T15:48:16;29.20;43.50
30174;DHT22;16985;50.814;8.530;2022-07-04T15:50:42;29.00;43.30
30174;DHT22;16985;50.814;8.530;2022-07-04T15:53:08;28.80;43.30
30174;DHT22;16985;50.814;8.530;2022-07-04T15:55:34;28.80;43.50
30174;DHT22;16985;50.814;8.530;2022-07-04T15:58:00;28.70;43.30
30174;DHT22;16985;50.814;8.530;2022-07-04T16:00:26;28.80;43.70
30174;DHT22;16985;50.814;8.530;2022-07-04T16:02:52;28.70;43.80
30174;DHT22;16985;50.814;8.530;2022-07-04T16:05:18;28.60;44.00
30174;DHT22;16985;50.814;8.530;2022-07-04T16:07:43;28.50;44.40
30174;DHT22;16985;50.814;8.530;2022-07-04T16:10:09;28.50;44.40
30174;DHT22;16985;50.814;8.530;2022-07-04T16:12:35;28.30;43.70
30174;DHT22;16985;50.814;8.530;2022-07-04T16:15:01;28.20;43.60
30174;DHT22;16985;50.814;8.530;2022-07-04T16:17:27;28.10;43.70
30174;DHT22;16985;50.814;8.530;2022-07-04T16:19:53;28.00;43.80
30174;DHT22;16985;50.814;8.530;2022-07-04T16:22:18;27.90;43.70
30174;DHT22;16985;50.814;8.530;2022-07-04T16:24:44;27.80;43.90